Time;durP1;ratioP1;P1;durP2;ratioP2;P2;SDS_P1;SDS_P2;PMS_P1;PMS_P2;Temp;Humidity;BMP_temperature;BMP_pressure;BME280_temperature;BME280_humidity;BME280_pressure;Samples;Min_cycle;Max_cycle;Signal;HPM_P1;HPM_P2
2022/01/25 00:08:27;;;;;;;20.17;15.90;;;;;;;0.71;100.00;151550.66;5054750;28;20446;-76
2022/01/25 00:25:58;;;;;;;24.80;17.70;;;;;;;0.66;100.00;151539.13;4975157;28;20936;-76
2022/01/25 00:28:46;;;;;;;21.60;15.63;;;;;;;0.64;100.00;151533.94;5066977;28;20445;-75
2022/01/25 00:31:24;;;;;;;18.70;15.00;;;;;;;0.62;100.00;151528.81;5073541;28;20480;-75
2022/01/25 00:33:59;;;;;;;19.60;15.40;;;;;;;0.58;100.00;151518.59;5085227;28;20462;-75
2022/01/25 00:36:36;;;;;;;20.57;16.00;;;;;;;0.55;100.00;151510.88;5073398;28;20959;-75
2022/01/25 00:39:12;;;;;;;19.73;14.63;;;;;;;0.53;100.00;151505.75;5074949;28;20440;-75
2022/01/25 00:41:48;;;;;;;22.17;16.10;;;;;;;0.49;100.00;151495.44;5072732;28;20449;-74
2022/01/25 00:44:24;;;;;;;22.13;16.40;;;;;;;0.46;100.00;151489.03;5073220;28;20624;-74
2022/01/25 00:47:01;;;;;;;18.93;15.00;;;;;;;0.40;100.00;151473.63;5073516;28;20969;-74
2022/01/25 00:49:40;;;;;;;23.53;16.77;;;;;;;0.39;100.00;151471.09;5107374;28;20445;-75
2022/01/25 00:52:22;;;;;;;19.20;15.60;;;;;;;0.41;100.00;151474.91;5057902;28;20449;-74
2022/01/25 00:55:01;;;;;;;21.93;16.47;;;;;;;0.39;100.00;151471.09;5058209;28;20523;-74
2022/01/25 00:57:37;;;;;;;21.57;16.37;;;;;;;0.38;100.00;151467.19;5057867;28;20533;-74
2022/01/25 01:00:13;;;;;;;21.07;15.73;;;;;;;0.35;100.00;151459.50;5073157;28;20633;-74
2022/01/25 01:02:49;;;;;;;18.80;14.80;;;;;;;0.32;100.00;151451.84;5073284;28;20586;-75
2022/01/25 01:05:25;;;;;;;20.50;14.83;;;;;;;0.31;100.00;151450.53;5097828;28;20441;-74
2022/01/25 01:08:01;;;;;;;23.50;15.60;;;;;;;0.32;100.00;151451.84;5073924;28;20442;-74
2022/01/25 01:10:38;;;;;;;23.07;15.87;;;;;;;0.31;100.00;151449.25;5073935;28;20402;-75
2022/01/25 01:13:51;;;;;;;19.03;14.60;;;;;;;0.33;100.00;151455.66;5072715;28;20563;-76
2022/01/25 01:16:53;;;;;;;23.33;14.80;;;;;;;0.30;100.00;151446.66;5057234;28;20984;-76
2022/01/25 01:31:30;;;;;;;19.33;14.83;;;;;;;0.20;100.00;151421.00;5023613;28;20537;-77
2022/01/25 01:34:42;;;;;;;22.83;17.07;;;;;;;0.15;100.00;151409.47;5034341;28;20588;-76
2022/01/25 01:40:34;;;;;;;18.63;14.57;;;;;;;0.19;100.00;151418.41;5094802;28;20920;-76
2022/01/25 01:43:20;;;;;;;22.20;15.60;;;;;;;0.16;100.00;151410.75;5071396;28;20935;-76
2022/01/25 01:46:03;;;;;;;21.60;16.20;;;;;;;0.19;100.00;151419.72;5057042;28;20886;-76
2022/01/25 01:48:48;;;;;;;23.60;16.60;;;;;;;0.22;100.00;151427.41;5056867;28;20441;-76
2022/01/25 01:51:29;;;;;;;23.33;17.43;;;;;;;0.19;100.00;151418.41;5057493;28;20449;-76
2022/01/25 01:54:07;;;;;;;24.77;17.90;;;;;;;0.22;100.00;151426.13;5072241;28;20484;-76
2022/01/25 01:56:44;;;;;;;25.37;17.53;;;;;;;0.38;100.00;151467.19;5072246;28;20439;-75
2022/01/25 01:59:21;;;;;;;25.40;17.20;;;;;;;0.48;100.00;151492.88;5056920;28;20898;-76
2022/01/25 02:01:56;;;;;;;26.53;17.60;;;;;;;0.35;100.00;151460.78;5106064;28;20869;-76
2022/01/25 02:04:32;;;;;;;29.83;19.60;;;;;;;0.28;100.00;151441.53;5071732;28;20441;-76
2022/01/25 02:07:08;;;;;;;24.37;18.60;;;;;;;0.23;100.00;151430.00;5071799;28;20453;-76
2022/01/25 02:09:43;;;;;;;22.70;17.00;;;;;;;0.22;100.00;151427.41;5071674;28;20455;-76
2022/01/25 02:12:19;;;;;;;28.23;18.60;;;;;;;0.18;100.00;151415.88;5105814;28;20457;-76
2022/01/25 02:14:56;;;;;;;23.30;17.90;;;;;;;0.11;100.00;151399.16;5071789;28;20476;-76
2022/01/25 02:17:53;;;;;;;25.73;18.13;;;;;;;0.09;100.00;151392.75;5072004;28;20540;-76
2022/01/25 02:23:25;;;;;;;23.83;17.00;;;;;;;0.03;100.00;151378.63;5079584;28;20488;-76
2022/01/25 02:26:03;;;;;;;26.27;18.30;;;;;;;-0.02;100.00;151367.09;5056283;28;20444;-76
2022/01/25 02:28:40;;;;;;;22.13;17.20;;;;;;;-0.06;100.00;151355.56;5051868;28;20430;-76
2022/01/25 02:31:17;;;;;;;26.23;17.00;;;;;;;-0.06;100.00;151355.56;5056406;28;20452;-76
2022/01/25 02:33:53;;;;;;;23.40;16.70;;;;;;;-0.09;100.00;151349.16;5056687;28;20827;-76
2022/01/25 02:36:29;;;;;;;22.57;16.37;;;;;;;-0.13;100.00;151337.56;5055656;28;20480;-76
2022/01/25 02:39:05;;;;;;;24.77;18.40;;;;;;;-0.15;100.00;151333.75;5070792;28;20437;-76
2022/01/25 02:41:40;;;;;;;27.63;17.30;;;;;;;-0.18;100.00;151326.03;5056698;28;20540;-76
2022/01/25 02:44:23;;;;;;;22.43;17.07;;;;;;;-0.23;100.00;151311.94;5062667;28;20430;-76
2022/01/25 02:49:53;;;;;;;22.30;16.00;;;;;;;-0.23;100.00;151313.22;5055843;28;20430;-75
2022/01/25 02:52:31;;;;;;;21.17;15.53;;;;;;;-0.27;100.00;151302.97;5071224;28;20434;-75
2022/01/25 02:55:07;;;;;;;21.97;16.03;;;;;;;-0.27;100.00;151301.69;5055518;28;20480;-75
2022/01/25 02:57:42;;;;;;;21.40;16.37;;;;;;;-0.28;100.00;151300.41;5070232;28;20438;-75
2022/01/25 03:00:20;;;;;;;23.27;16.60;;;;;;;-0.25;100.00;151306.81;5078527;28;20437;-74
2022/01/25 03:02:56;;;;;;;21.27;16.07;;;;;;;-0.22;100.00;151314.50;5056006;28;20483;-77
2022/01/25 03:05:32;;;;;;;22.63;16.70;;;;;;;-0.26;100.00;151305.50;5047361;28;20438;-77
2022/01/25 03:08:12;;;;;;;24.53;15.77;;;;;;;-0.28;100.00;151300.41;5084622;28;20526;-76
2022/01/25 03:10:48;;;;;;;20.80;16.23;;;;;;;-0.31;100.00;151292.69;5067474;28;20449;-76
2022/01/25 03:13:29;;;;;;;24.40;17.50;;;;;;;-0.32;100.00;151290.09;5079866;28;20474;-77
2022/01/25 03:16:17;;;;;;;20.90;15.83;;;;;;;-0.27;100.00;151301.69;5070611;28;20446;-77
2022/01/25 03:18:56;;;;;;;26.93;16.77;;;;;;;-0.29;100.00;151297.81;5056388;28;20527;-77
2022/01/25 03:21:38;;;;;;;26.83;17.67;;;;;;;-0.34;100.00;151284.97;5072254;28;20455;-76
2022/01/25 03:24:14;;;;;;;24.30;16.77;;;;;;;-0.34;100.00;151284.97;5071107;28;20446;-76
2022/01/25 03:26:50;;;;;;;25.70;17.10;;;;;;;-0.34;100.00;151283.69;5055420;28;20518;-76
2022/01/25 03:29:26;;;;;;;24.10;15.57;;;;;;;-0.37;100.00;151277.28;5070756;28;20445;-76
2022/01/25 03:32:01;;;;;;;21.63;15.80;;;;;;;-0.39;100.00;151272.16;5054291;28;20457;-76
2022/01/25 03:34:37;;;;;;;22.13;15.93;;;;;;;-0.36;100.00;151278.56;5067093;28;20461;-76
2022/01/25 03:37:13;;;;;;;21.20;17.20;;;;;;;-0.38;100.00;151273.44;5104859;28;20452;-77
2022/01/25 03:39:49;;;;;;;23.00;16.40;;;;;;;-0.41;100.00;151265.75;5071221;28;20452;-76
2022/01/25 03:42:26;;;;;;;22.00;16.50;;;;;;;-0.42;100.00;151263.16;5071331;28;20445;-76
2022/01/25 03:45:02;;;;;;;21.10;16.10;;;;;;;-0.39;100.00;151272.16;5051805;28;20448;-76
2022/01/25 03:47:46;;;;;;;22.20;17.90;;;;;;;-0.42;100.00;151263.16;5035920;28;20456;-76
2022/01/25 03:50:21;;;;;;;23.03;17.13;;;;;;;-0.37;100.00;151276.03;5056240;28;20449;-76
2022/01/25 03:52:57;;;;;;;23.60;17.27;;;;;;;-0.42;100.00;151264.47;5070155;28;20533;-76
2022/01/25 03:55:34;;;;;;;22.27;16.60;;;;;;;-0.42;100.00;151264.47;5070957;28;20429;-76
2022/01/25 03:58:09;;;;;;;24.53;17.00;;;;;;;-0.42;100.00;151264.47;5071506;28;20443;-76
2022/01/25 04:00:45;;;;;;;24.30;16.10;;;;;;;-0.46;100.00;151254.22;5073268;28;20437;-76
2022/01/25 04:03:28;;;;;;;22.60;17.23;;;;;;;-0.47;100.00;151250.34;5059411;28;20856;-76
2022/01/25 04:06:04;;;;;;;22.53;15.80;;;;;;;-0.48;100.00;151247.81;5071306;28;20439;-76
2022/01/25 04:08:40;;;;;;;22.60;16.57;;;;;;;-0.48;100.00;151249.09;5059485;28;20443;-76
2022/01/25 04:11:17;;;;;;;21.13;16.80;;;;;;;-0.46;100.00;151252.94;5075183;28;20774;-76
2022/01/25 04:13:54;;;;;;;24.60;17.60;;;;;;;-0.53;100.00;151236.22;5058431;28;20863;-75
2022/01/25 04:16:35;;;;;;;20.50;15.60;;;;;;;-0.52;100.00;151237.53;5074281;28;20437;-76
2022/01/25 04:19:16;;;;;;;23.57;16.47;;;;;;;-0.52;100.00;151238.81;5073854;28;20459;-76
2022/01/25 04:27:47;;;;;;;21.97;16.27;;;;;;;-0.52;100.00;151238.81;5066909;28;20439;-76
2022/01/25 04:30:23;;;;;;;23.00;16.00;;;;;;;-0.55;100.00;151229.81;5074517;28;20445;-75
2022/01/25 04:33:01;;;;;;;21.30;16.70;;;;;;;-0.55;100.00;151229.81;5058951;28;20836;-75
2022/01/25 04:35:56;;;;;;;24.33;16.30;;;;;;;-0.59;100.00;151219.59;5073655;28;20458;-75
2022/01/25 04:50:05;;;;;;;22.63;16.63;;;;;;;-0.68;100.00;151197.78;5074245;28;20439;-75
2022/01/25 04:52:51;;;;;;;21.37;16.80;;;;;;;-0.66;100.00;151202.88;5058838;28;20437;-75
2022/01/25 04:55:33;;;;;;;23.13;16.37;;;;;;;-0.68;100.00;151197.78;5073669;28;20467;-75
2022/01/25 04:58:15;;;;;;;21.37;15.90;;;;;;;-0.67;100.00;151200.34;5071597;28;20452;-75
2022/01/25 05:00:52;;;;;;;26.87;16.20;;;;;;;-0.64;100.00;151208.06;5071188;28;20557;-75
2022/01/25 05:03:40;;;;;;;23.00;15.97;;;;;;;-0.65;100.00;151205.47;5069262;28;20427;-75
2022/01/25 05:06:17;;;;;;;26.10;17.90;;;;;;;-0.70;100.00;151192.66;5101719;28;20556;-75
2022/01/25 05:08:56;;;;;;;23.10;16.63;;;;;;;-0.70;100.00;151192.66;5072594;28;20544;-75
2022/01/25 05:11:34;;;;;;;24.47;16.57;;;;;;;-0.69;100.00;151195.25;5072244;28;20792;-75
2022/01/25 05:14:16;;;;;;;23.23;17.53;;;;;;;-0.69;100.00;151195.25;5071842;28;20485;-75
2022/01/25 05:16:58;;;;;;;21.80;15.93;;;;;;;-0.69;100.00;151195.25;5072560;28;20460;-75
2022/01/25 05:22:29;;;;;;;20.80;16.47;;;;;;;-0.73;100.00;151184.94;5075286;28;20435;-76
2022/01/25 05:25:06;;;;;;;20.70;15.50;;;;;;;-0.76;100.00;151177.25;5106467;28;20450;-75
2022/01/25 05:27:42;;;;;;;20.70;14.90;;;;;;;-0.80;100.00;151167.00;5073714;28;20446;-75
2022/01/25 05:30:17;;;;;;;21.67;16.73;;;;;;;-0.83;100.00;151160.59;5049174;28;20448;-75
2022/01/25 05:32:54;;;;;;;22.23;16.10;;;;;;;-0.82;100.00;151161.91;5071765;28;20441;-75
2022/01/25 05:35:29;;;;;;;23.00;16.73;;;;;;;-0.80;100.00;151167.00;5070759;28;20465;-75
2022/01/25 05:38:05;;;;;;;22.40;16.47;;;;;;;-0.84;100.00;151158.03;5068714;28;20490;-75
2022/01/25 05:40:44;;;;;;;23.40;16.40;;;;;;;-0.85;100.00;151155.44;5055610;28;20515;-75
2022/01/25 05:46:16;;;;;;;22.17;15.77;;;;;;;-0.87;100.00;151150.31;5053731;28;20453;-76
2022/01/25 05:48:53;;;;;;;22.27;15.07;;;;;;;-0.82;100.00;151163.16;5072849;28;20424;-76
2022/01/25 05:51:28;;;;;;;25.17;15.87;;;;;;;-0.85;100.00;151154.19;5070487;28;21937;-75
2022/01/25 05:54:04;;;;;;;23.27;16.87;;;;;;;-0.86;100.00;151152.91;5055053;28;20965;-76
2022/01/25 05:56:39;;;;;;;21.03;16.03;;;;;;;-0.91;100.00;151140.09;5072799;28;20448;-75
2022/01/25 05:59:15;;;;;;;25.50;16.40;;;;;;;-0.92;100.00;151136.22;5068077;28;20545;-75
2022/01/25 06:01:51;;;;;;;22.60;15.93;;;;;;;-0.94;100.00;151131.09;5069855;28;20462;-75
2022/01/25 06:04:29;;;;;;;23.37;17.00;;;;;;;-0.91;100.00;151140.09;5055699;28;20848;-76
2022/01/25 06:07:06;;;;;;;24.60;16.87;;;;;;;-0.91;100.00;151138.78;5070899;28;20449;-75
2022/01/25 06:09:54;;;;;;;20.33;15.97;;;;;;;-0.87;100.00;151149.03;5071048;28;20540;-76
2022/01/25 06:12:31;;;;;;;23.93;18.07;;;;;;;-0.81;100.00;151164.44;5069795;28;20790;-76
2022/01/25 06:15:10;;;;;;;24.87;16.83;;;;;;;-0.79;100.00;151170.84;5071264;28;20533;-75
2022/01/25 06:17:47;;;;;;;26.57;17.43;;;;;;;-0.87;100.00;151149.03;5068910;28;20449;-76
2022/01/25 06:20:24;;;;;;;23.70;17.63;;;;;;;-0.93;100.00;151133.69;5069907;28;20430;-76
2022/01/25 06:23:00;;;;;;;22.97;15.67;;;;;;;-1.00;100.00;151115.69;5070605;28;20445;-75
2022/01/25 06:25:36;;;;;;;27.50;17.37;;;;;;;-1.02;100.00;151110.59;5053170;28;20466;-76
2022/01/25 06:28:23;;;;;;;21.40;16.53;;;;;;;-1.03;100.00;151108.06;5071816;28;20457;-75
2022/01/25 06:31:07;;;;;;;23.40;16.07;;;;;;;-1.01;100.00;151113.16;5072261;28;20485;-76
2022/01/25 06:33:55;;;;;;;29.93;16.87;;;;;;;-1.02;100.00;151110.59;5069946;28;20981;-75
2022/01/25 06:36:32;;;;;;;27.83;18.07;;;;;;;-1.05;100.00;151102.88;5054155;28;20883;-76
2022/01/25 06:39:08;;;;;;;25.13;16.93;;;;;;;-1.07;100.00;151097.78;5050514;28;20453;-74
2022/01/25 06:41:44;;;;;;;21.93;15.33;;;;;;;-1.06;100.00;151100.34;5069375;28;20457;-76
2022/01/25 06:44:20;;;;;;;23.07;16.30;;;;;;;-1.04;100.00;151105.47;5067553;28;20804;-76
2022/01/25 06:46:56;;;;;;;22.90;15.70;;;;;;;-1.12;100.00;151084.97;5069735;28;20460;-77
2022/01/25 06:49:31;;;;;;;22.37;15.90;;;;;;;-1.14;100.00;151079.84;5054512;28;20436;-76
2022/01/25 06:52:08;;;;;;;21.10;15.70;;;;;;;-1.13;100.00;151083.66;5069942;28;21040;-76
2022/01/25 06:54:44;;;;;;;24.57;16.90;;;;;;;-1.11;100.00;151088.78;5054581;28;20462;-76
2022/01/25 06:57:19;;;;;;;21.40;16.07;;;;;;;-1.11;100.00;151087.53;5071709;28;20454;-77
2022/01/25 06:59:55;;;;;;;24.13;16.20;;;;;;;-1.12;100.00;151084.97;5068573;28;20456;-77
2022/01/25 07:02:30;;;;;;;21.83;16.00;;;;;;;-1.12;100.00;151086.25;5068561;28;20454;-77
2022/01/25 07:05:07;;;;;;;25.90;16.40;;;;;;;-1.09;100.00;151092.66;5064584;28;20434;-76
2022/01/25 07:07:45;;;;;;;24.10;16.83;;;;;;;-1.09;100.00;151093.94;5059418;28;20862;-77
2022/01/25 07:10:21;;;;;;;20.77;16.23;;;;;;;-1.11;100.00;151087.53;5067051;28;20943;-77
2022/01/25 07:12:56;;;;;;;24.10;16.03;;;;;;;-1.05;100.00;151102.88;5045320;28;20536;-76
2022/01/25 07:15:32;;;;;;;24.60;17.30;;;;;;;-1.04;100.00;151105.47;5069437;28;20455;-77
2022/01/25 07:18:08;;;;;;;25.93;18.30;;;;;;;-1.02;100.00;151111.88;5065858;28;20445;-77
2022/01/25 07:20:43;;;;;;;23.50;17.03;;;;;;;-0.90;100.00;151142.63;5041670;28;20461;-77
2022/01/25 07:23:21;;;;;;;22.70;17.00;;;;;;;-0.79;100.00;151169.56;5067503;28;20510;-77
2022/01/25 07:25:56;;;;;;;26.50;17.80;;;;;;;-0.68;100.00;151197.78;5067339;28;20932;-77
2022/01/25 07:28:33;;;;;;;26.90;18.87;;;;;;;-0.55;100.00;151231.13;5085337;28;20457;-76
2022/01/25 07:31:09;;;;;;;23.10;17.13;;;;;;;-0.44;100.00;151259.34;5070116;28;20450;-76
2022/01/25 07:33:45;;;;;;;25.40;18.47;;;;;;;-0.35;100.00;151282.44;5055078;28;20453;-77
2022/01/25 07:36:20;;;;;;;29.57;19.33;;;;;;;-0.24;100.00;151309.38;5068997;28;20484;-77
2022/01/25 07:38:57;;;;;;;24.67;19.00;;;;;;;-0.14;100.00;151336.34;5069801;28;20474;-77
2022/01/25 07:41:33;;;;;;;33.03;20.53;;;;;;;-0.03;100.00;151364.53;5038626;28;20487;-77
2022/01/25 07:44:08;;;;;;;26.07;18.43;;;;;;;0.09;100.00;151392.75;5068217;28;20445;-77
2022/01/25 07:46:44;;;;;;;24.60;17.10;;;;;;;0.17;100.00;151413.28;5080841;28;20819;-77
2022/01/25 07:49:20;;;;;;;25.97;19.10;;;;;;;0.26;100.00;151436.41;5071320;28;20445;-77
2022/01/25 07:51:55;;;;;;;26.40;18.37;;;;;;;0.34;100.00;151456.97;5085235;28;20948;-76
2022/01/25 07:54:32;;;;;;;24.53;18.67;;;;;;;0.46;100.00;151487.75;5070177;28;20445;-76
2022/01/25 07:57:08;;;;;;;23.10;18.70;;;;;;;0.46;100.00;151487.75;5065434;28;20441;-76
2022/01/25 07:59:44;;;;;;;25.53;18.80;;;;;;;0.46;100.00;151487.75;5063385;28;20449;-76
2022/01/25 08:02:21;;;;;;;23.03;17.80;;;;;;;0.49;100.00;151495.44;5070735;28;20460;-76
2022/01/25 08:04:56;;;;;;;24.83;17.20;;;;;;;0.48;100.00;151492.88;5065726;28;20944;-77
2022/01/25 08:07:32;;;;;;;22.90;17.37;;;;;;;0.50;100.00;151498.03;5063112;28;20442;-76
2022/01/25 08:10:10;;;;;;;27.03;18.93;;;;;;;0.54;100.00;151508.28;5069436;28;20960;-76
2022/01/25 08:12:47;;;;;;;27.47;19.10;;;;;;;0.44;100.00;151483.91;5057861;28;20896;-76
2022/01/25 08:15:24;;;;;;;25.23;17.97;;;;;;;0.45;100.00;151485.22;5053971;28;20465;-76
2022/01/25 08:18:00;;;;;;;20.47;17.07;;;;;;;0.42;100.00;151478.78;5069338;28;20449;-76
2022/01/25 08:20:36;;;;;;;22.47;16.40;;;;;;;0.45;100.00;151486.44;5056031;28;20450;-76
2022/01/25 08:23:12;;;;;;;27.43;17.87;;;;;;;0.49;100.00;151495.44;5078189;28;20454;-77
2022/01/25 08:25:49;;;;;;;22.37;17.67;;;;;;;0.52;100.00;151503.16;5068155;28;20465;-77
2022/01/25 08:28:25;;;;;;;22.87;17.20;;;;;;;0.49;100.00;151495.44;5059150;28;20538;-77
2022/01/25 08:31:00;;;;;;;25.33;19.00;;;;;;;0.48;100.00;151492.88;5074317;28;20461;-77
2022/01/25 08:33:36;;;;;;;27.13;19.10;;;;;;;0.55;100.00;151510.88;5083701;28;20457;-76
2022/01/25 08:36:12;;;;;;;23.87;17.13;;;;;;;0.59;100.00;151521.13;5051574;28;20473;-77
2022/01/25 08:38:47;;;;;;;27.23;18.20;;;;;;;0.62;100.00;151528.81;5070211;28;20853;-76
2022/01/25 08:41:24;;;;;;;23.47;17.33;;;;;;;0.65;100.00;151536.53;5069509;28;21015;-77
2022/01/25 08:44:00;;;;;;;27.60;18.77;;;;;;;0.61;100.00;151526.25;5068853;28;20445;-76
2022/01/25 08:46:35;;;;;;;25.27;18.87;;;;;;;0.69;100.00;151546.78;5055827;28;20488;-76
2022/01/25 08:49:11;;;;;;;25.27;17.50;;;;;;;0.72;100.00;151553.22;5072885;28;20916;-77
2022/01/25 08:51:48;;;;;;;24.80;17.97;;;;;;;0.76;100.00;151564.81;5053975;28;20489;-76
2022/01/25 08:54:24;;;;;;;26.67;18.70;;;;;;;0.84;100.00;151585.34;5073634;28;20456;-76
2022/01/25 08:57:01;;;;;;;22.63;17.90;;;;;;;0.90;100.00;151599.47;5080443;28;20481;-77
2022/01/25 08:59:37;;;;;;;25.77;18.30;;;;;;;0.92;100.00;151605.91;5077112;28;20441;-77
2022/01/25 09:02:13;;;;;;;23.83;18.13;;;;;;;1.00;100.00;151626.44;5060620;28;20535;-75
2022/01/25 09:04:48;;;;;;;25.73;18.33;;;;;;;1.05;100.00;151639.28;5072835;28;20434;-77
2022/01/25 09:07:24;;;;;;;25.60;18.50;;;;;;;1.07;100.00;151643.13;5056116;28;20865;-77
2022/01/25 09:10:00;;;;;;;24.50;18.50;;;;;;;1.12;100.00;151655.97;5072011;28;20494;-77
2022/01/25 09:12:37;;;;;;;23.27;17.23;;;;;;;1.15;100.00;151663.66;5064644;28;20970;-76
2022/01/25 09:15:13;;;;;;;27.00;18.80;;;;;;;1.22;100.00;151681.63;5052319;28;20473;-74
2022/01/25 09:17:48;;;;;;;24.43;17.70;;;;;;;1.29;100.00;151698.38;5051162;28;20458;-76
2022/01/25 09:20:24;;;;;;;24.10;17.13;;;;;;;1.33;100.00;151708.63;5051676;28;20522;-76
2022/01/25 09:22:59;;;;;;;23.97;16.57;;;;;;;1.33;100.00;151709.91;5026826;28;20451;-76
2022/01/25 09:25:35;;;;;;;22.70;16.67;;;;;;;1.41;100.00;151730.47;5034719;28;21318;-76
2022/01/25 09:28:13;;;;;;;27.43;17.93;;;;;;;1.45;100.00;151740.78;5034525;28;20454;-77
2022/01/25 09:30:48;;;;;;;24.13;16.63;;;;;;;1.54;100.00;151762.56;5050379;28;20447;-76
2022/01/25 09:33:26;;;;;;;21.50;15.10;;;;;;;1.56;100.00;151767.75;5035111;28;20462;-76
2022/01/25 09:36:02;;;;;;;27.50;18.17;;;;;;;1.63;100.00;151787.03;5033847;28;20476;-77
2022/01/25 09:38:38;;;;;;;27.10;19.07;;;;;;;1.65;100.00;151790.84;5051261;28;20440;-76
2022/01/25 09:41:14;;;;;;;25.03;17.53;;;;;;;1.71;100.00;151806.28;5053533;28;20463;-76
2022/01/25 09:43:51;;;;;;;23.67;17.90;;;;;;;1.77;100.00;151822.97;5032626;28;20896;-76
2022/01/25 09:46:26;;;;;;;22.30;16.90;;;;;;;1.82;100.00;151834.56;5030828;28;20838;-77
2022/01/25 09:49:02;;;;;;;24.10;16.77;;;;;;;1.84;100.00;151841.00;5043776;28;20479;-77
2022/01/25 09:51:40;;;;;;;23.03;16.20;;;;;;;1.90;100.00;151855.16;5047169;28;20449;-76
2022/01/25 09:54:16;;;;;;;23.50;16.60;;;;;;;1.92;99.92;151858.97;5047477;28;20460;-76
2022/01/25 09:56:51;;;;;;;23.17;16.50;;;;;;;1.98;99.96;151875.72;5052094;28;20474;-76
2022/01/25 09:59:29;;;;;;;23.30;17.37;;;;;;;2.04;99.95;151889.84;5048075;28;20446;-76
2022/01/25 10:02:04;;;;;;;19.57;16.43;;;;;;;2.10;100.00;151906.53;5051022;28;20449;-77
2022/01/25 10:04:42;;;;;;;21.40;15.93;;;;;;;2.13;99.52;151912.97;5051183;28;20440;-77
2022/01/25 10:07:29;;;;;;;22.43;15.73;;;;;;;2.13;99.83;151914.25;5046777;28;21023;-76
2022/01/25 10:10:05;;;;;;;24.67;17.07;;;;;;;2.13;99.18;151914.25;5020191;28;20482;-77
2022/01/25 10:12:40;;;;;;;25.17;19.00;;;;;;;2.16;99.33;151921.97;5049700;28;20457;-77
2022/01/25 10:15:17;;;;;;;28.70;17.90;;;;;;;2.16;99.22;151921.97;5067662;28;20850;-76
2022/01/25 10:17:53;;;;;;;23.03;16.10;;;;;;;2.23;98.01;151939.97;5067908;28;20440;-77
2022/01/25 10:20:30;;;;;;;25.33;17.97;;;;;;;2.33;94.60;151965.66;5069770;28;20447;-77
2022/01/25 10:23:11;;;;;;;26.43;19.43;;;;;;;2.57;95.27;152026.13;5066102;28;20475;-77
2022/01/25 10:25:48;;;;;;;23.40;18.00;;;;;;;2.75;95.05;152071.16;5061444;28;20448;-77
2022/01/25 10:28:25;;;;;;;23.93;17.17;;;;;;;2.70;92.83;152058.31;5054390;28;20472;-76
2022/01/25 10:31:05;;;;;;;21.77;17.53;;;;;;;2.42;92.65;151987.53;5062532;28;20450;-77
2022/01/25 10:33:51;;;;;;;22.60;17.13;;;;;;;2.43;93.13;151990.13;5053598;28;20445;-76
2022/01/25 10:36:43;;;;;;;26.40;16.90;;;;;;;2.47;93.54;152001.69;5068357;28;21034;-77
2022/01/25 10:39:21;;;;;;;27.57;18.63;;;;;;;2.51;92.81;152009.41;5078448;28;20487;-76
2022/01/25 10:42:05;;;;;;;28.03;20.07;;;;;;;2.43;91.82;151991.44;5067296;28;20541;-76
2022/01/25 10:44:48;;;;;;;31.40;22.27;;;;;;;2.42;92.49;151987.53;5052882;28;20481;-76
2022/01/25 10:47:40;;;;;;;25.87;19.13;;;;;;;2.43;92.44;151990.13;5086129;28;20463;-76
2022/01/25 10:50:17;;;;;;;27.10;19.60;;;;;;;2.35;92.55;151969.56;5054399;28;20778;-77
2022/01/25 10:53:05;;;;;;;28.93;18.47;;;;;;;2.26;93.19;151947.69;5064979;28;20458;-76
2022/01/25 10:55:43;;;;;;;25.27;19.47;;;;;;;2.24;93.61;151941.25;5083049;28;20455;-76
2022/01/25 10:58:19;;;;;;;25.67;19.37;;;;;;;2.26;93.87;151946.41;5068721;28;20942;-76
2022/01/25 11:00:58;;;;;;;26.90;19.40;;;;;;;2.27;94.77;151950.28;5043452;28;20475;-76
2022/01/25 11:03:37;;;;;;;26.23;20.23;;;;;;;2.38;93.86;151978.53;5068654;28;20443;-76
2022/01/25 11:06:16;;;;;;;27.40;21.20;;;;;;;2.43;93.76;151991.44;5067514;28;20458;-77
2022/01/25 11:08:57;;;;;;;25.80;20.60;;;;;;;2.40;94.03;151983.72;5051109;28;20465;-76
2022/01/25 11:11:38;;;;;;;25.97;19.83;;;;;;;2.44;94.67;151992.69;5070322;28;20454;-77
2022/01/25 11:17:11;;;;;;;27.77;21.77;;;;;;;2.59;93.33;152031.28;5066534;28;20471;-77
2022/01/25 11:19:48;;;;;;;27.73;20.90;;;;;;;2.60;93.58;152033.84;5069270;28;20808;-77
2022/01/25 11:22:23;;;;;;;27.63;19.67;;;;;;;2.61;94.12;152035.13;5070522;28;20477;-77
2022/01/25 11:25:00;;;;;;;28.97;21.20;;;;;;;2.61;93.81;152036.44;5066940;28;20459;-77
2022/01/25 11:27:38;;;;;;;31.57;22.10;;;;;;;2.65;93.27;152045.44;5069031;28;20954;-76
2022/01/25 11:30:15;;;;;;;27.30;21.23;;;;;;;2.72;93.88;152063.44;5069602;28;20446;-76
2022/01/25 11:32:51;;;;;;;31.17;21.70;;;;;;;2.84;92.51;152094.28;5068101;28;20450;-77
2022/01/25 11:35:29;;;;;;;26.87;21.03;;;;;;;2.80;91.83;152085.31;5053989;28;20451;-76
2022/01/25 11:38:06;;;;;;;33.83;22.53;;;;;;;2.76;92.92;152073.72;5069930;28;20935;-76
2022/01/25 11:40:42;;;;;;;29.40;22.57;;;;;;;2.84;93.01;152094.28;5096982;28;20460;-77
2022/01/25 11:43:18;;;;;;;28.07;21.67;;;;;;;2.87;93.47;152102.00;5070112;28;20453;-76
2022/01/25 11:46:03;;;;;;;28.70;21.63;;;;;;;2.86;93.26;152099.47;5053364;28;21024;-77
2022/01/25 11:48:42;;;;;;;31.70;20.37;;;;;;;2.76;92.20;152075.00;5066654;28;20448;-76
2022/01/25 11:51:20;;;;;;;27.30;21.80;;;;;;;2.85;92.42;152096.88;5065307;28;20808;-76
2022/01/25 11:53:55;;;;;;;30.30;22.33;;;;;;;2.83;92.55;152093.00;5068767;28;20774;-76
2022/01/25 11:56:32;;;;;;;28.30;21.73;;;;;;;2.87;92.41;152102.00;5054200;28;20464;-77
2022/01/25 11:59:07;;;;;;;31.73;22.20;;;;;;;2.92;92.52;152116.16;5068487;28;20444;-76
2022/01/25 12:01:51;;;;;;;30.23;22.50;;;;;;;2.99;92.16;152134.16;5068400;28;20535;-76
2022/01/25 12:04:30;;;;;;;30.60;22.97;;;;;;;3.01;92.30;152138.06;5065334;28;20453;-76
2022/01/25 12:07:23;;;;;;;36.20;23.80;;;;;;;3.10;91.21;152159.94;5054626;28;20823;-76
2022/01/25 12:10:12;;;;;;;27.70;22.73;;;;;;;3.08;91.84;152156.06;5070945;28;20444;-76
2022/01/25 12:13:17;;;;;;;31.07;21.27;;;;;;;3.01;92.20;152138.06;5067329;28;20452;-76
2022/01/25 12:16:23;;;;;;;32.27;23.40;;;;;;;3.01;92.79;152139.34;5055294;28;20446;-76
2022/01/25 12:19:00;;;;;;;30.73;24.93;;;;;;;3.24;92.26;152197.22;5066782;28;20484;-76
2022/01/25 12:22:01;;;;;;;34.80;25.40;;;;;;;3.33;91.24;152220.41;5071870;28;20444;-76
2022/01/25 12:24:59;;;;;;;29.70;22.90;;;;;;;3.35;91.50;152225.56;5048332;28;20452;-76
2022/01/25 12:27:40;;;;;;;30.70;22.70;;;;;;;3.34;91.70;152221.66;5069741;28;20451;-76
2022/01/25 12:30:20;;;;;;;31.23;24.47;;;;;;;3.28;91.71;152206.25;5057224;28;20820;-76
2022/01/25 12:33:01;;;;;;;35.07;23.60;;;;;;;3.27;91.88;152203.66;5063155;28;20480;-76
2022/01/25 12:35:57;;;;;;;29.23;23.10;;;;;;;3.23;91.71;152194.63;5098090;28;20457;-76
2022/01/25 12:38:43;;;;;;;34.10;23.23;;;;;;;2.91;93.16;152112.34;5070010;28;20924;-76
2022/01/25 12:41:21;;;;;;;27.23;22.83;;;;;;;2.96;92.97;152126.50;5056378;28;20463;-76
2022/01/25 12:43:58;;;;;;;39.13;26.77;;;;;;;2.90;94.46;152109.75;5055248;28;20451;-76
2022/01/25 12:46:40;;;;;;;31.30;25.47;;;;;;;2.92;94.28;152114.88;5073386;28;20498;-75
2022/01/25 12:49:20;;;;;;;35.87;25.10;;;;;;;2.98;94.78;152130.31;5038977;28;20785;-76
2022/01/25 12:51:56;;;;;;;33.93;26.00;;;;;;;2.96;95.33;152125.19;5071582;28;20549;-76
2022/01/25 12:54:36;;;;;;;39.57;26.87;;;;;;;3.01;94.93;152138.06;5046850;28;20453;-76
2022/01/25 12:57:14;;;;;;;34.10;26.83;;;;;;;2.96;95.15;152126.50;5099821;28;20866;-76
2022/01/25 12:59:49;;;;;;;40.30;27.10;;;;;;;3.02;95.53;152140.59;5055572;28;20534;-76
2022/01/25 13:02:27;;;;;;;38.93;27.30;;;;;;;3.06;96.15;152150.91;5070426;28;20541;-76
2022/01/25 13:05:14;;;;;;;37.50;27.17;;;;;;;3.02;95.90;152141.91;5072932;28;20453;-76
2022/01/25 13:07:50;;;;;;;36.77;28.37;;;;;;;2.98;96.29;152130.31;5071006;28;20920;-76
2022/01/25 13:10:29;;;;;;;39.43;29.57;;;;;;;3.00;96.38;152136.75;5073657;28;20430;-76